createdAt,value
2018-04-06T00:02:17.695Z,1.30
2018-04-06T00:04:46.688Z,1.30
2018-04-06T00:07:14.916Z,1.30
2018-04-06T00:09:43.149Z,1.30
2018-04-06T00:12:11.376Z,1.20
2018-04-06T00:14:39.965Z,1.20
2018-04-06T00:17:08.200Z,1.20
2018-04-06T00:19:36.443Z,1.10
2018-04-06T00:22:04.665Z,1.00
2018-04-06T00:24:33.673Z,0.90
2018-04-06T00:27:01.904Z,0.80
2018-04-06T00:29:30.144Z,0.70
2018-04-06T00:31:59.128Z,0.80
2018-04-06T00:34:28.133Z,0.80
2018-04-06T00:36:57.120Z,0.80
2018-04-06T00:39:26.120Z,0.80
2018-04-06T00:41:55.142Z,0.70
2018-04-06T00:44:24.114Z,0.70
2018-04-06T00:46:52.387Z,0.70
2018-04-06T00:49:20.628Z,0.70
2018-04-06T00:51:49.620Z,0.70
2018-04-06T00:54:18.629Z,0.70
2018-04-06T00:56:47.625Z,0.80
2018-04-06T00:59:16.625Z,0.70
2018-04-06T01:01:44.844Z,0.70
2018-04-06T01:04:13.095Z,0.80
2018-04-06T01:06:41.308Z,0.90
2018-04-06T01:09:09.565Z,0.90
2018-04-06T01:11:37.786Z,0.80
2018-04-06T01:14:06.768Z,0.60
2018-04-06T01:16:35.012Z,0.60
2018-04-06T01:19:03.232Z,0.60
2018-04-06T01:21:31.476Z,0.60
2018-04-06T01:24:00.468Z,0.60
2018-04-06T01:26:29.469Z,0.70
2018-04-06T01:28:58.455Z,0.80
2018-04-06T01:31:27.483Z,0.80
2018-04-06T01:33:55.713Z,0.80
2018-04-06T01:36:24.720Z,0.80
2018-04-06T01:38:53.712Z,0.70
2018-04-06T01:41:22.717Z,0.60
2018-04-06T01:43:50.941Z,0.60
2018-04-06T01:46:19.228Z,0.50
2018-04-06T01:48:47.460Z,0.50
2018-04-06T01:51:15.703Z,0.50
2018-04-06T01:53:43.924Z,0.40
2018-04-06T01:56:12.166Z,0.40
2018-04-06T01:58:40.388Z,0.40
2018-04-06T02:01:08.619Z,0.30
2018-04-06T02:03:36.853Z,0.20
2018-04-06T02:06:05.096Z,0.20
2018-04-06T02:08:33.315Z,0.10
2018-04-06T02:11:01.561Z,0.10
2018-04-06T02:13:29.788Z,0.10
2018-04-06T02:15:58.019Z,0.10
2018-04-06T02:18:26.240Z,0.10
2018-04-06T02:20:54.476Z,0.00
2018-04-06T02:23:23.469Z,0.00
2018-04-06T02:25:52.468Z,0.00
2018-04-06T02:28:20.706Z,0.00
2018-04-06T02:30:48.948Z,-0.10
2018-04-06T02:33:17.178Z,0.00
2018-04-06T02:35:46.188Z,-0.10
2018-04-06T02:38:14.409Z,-0.10
2018-04-06T02:40:42.656Z,-0.20
2018-04-06T02:43:10.885Z,-0.30
2018-04-06T02:45:39.894Z,-0.50
2018-04-06T02:48:08.116Z,-0.50
2018-04-06T02:50:36.366Z,-0.50
2018-04-06T02:53:04.606Z,-0.50
2018-04-06T02:55:33.617Z,-0.40
2018-04-06T02:58:01.853Z,-0.50
2018-04-06T03:00:30.104Z,-0.40
2018-04-06T03:02:59.170Z,-0.30
2018-04-06T03:05:27.392Z,-0.30
2018-04-06T03:07:55.632Z,-0.30
2018-04-06T03:10:23.864Z,-0.30
2018-04-06T03:12:52.122Z,-0.30
2018-04-06T03:15:20.352Z,-0.30
2018-04-06T03:17:48.592Z,-0.30
2018-04-06T03:20:16.833Z,-0.30
2018-04-06T03:22:45.072Z,-0.30
2018-04-06T03:25:13.308Z,-0.40
2018-04-06T03:27:41.548Z,-0.40
2018-04-06T03:30:09.781Z,-0.40
2018-04-06T03:32:38.030Z,-0.40
2018-04-06T03:35:06.260Z,-0.50
2018-04-06T03:37:34.504Z,-0.50
2018-04-06T03:40:02.740Z,-0.40
2018-04-06T03:42:31.744Z,-0.60
2018-04-06T03:44:59.973Z,-0.60
2018-04-06T03:47:28.213Z,-0.60
2018-04-06T03:49:56.454Z,-0.50
2018-04-06T03:52:25.456Z,-0.70
2018-04-06T03:54:53.689Z,-0.70
2018-04-06T03:57:21.932Z,-0.70
2018-04-06T03:59:50.155Z,-0.70
2018-04-06T04:02:19.192Z,-0.70
2018-04-06T04:04:47.425Z,-0.70
2018-04-06T04:07:16.434Z,-0.70
2018-04-06T04:09:44.663Z,-0.70
2018-04-06T04:12:12.907Z,-0.70
2018-04-06T04:14:41.140Z,-0.70
2018-04-06T04:17:10.163Z,-0.70
2018-04-06T04:19:38.401Z,-0.70
2018-04-06T04:22:07.419Z,-0.70
2018-04-06T04:24:35.649Z,-0.70
2018-04-06T04:27:03.909Z,-0.70
2018-04-06T04:29:32.132Z,-0.70
2018-04-06T04:32:00.370Z,-0.80
2018-04-06T04:34:28.629Z,-0.80
2018-04-06T04:36:56.852Z,-0.80
2018-04-06T04:39:25.085Z,-0.80
2018-04-06T04:41:53.328Z,-0.80
2018-04-06T04:44:21.563Z,-0.80
2018-04-06T04:46:50.583Z,-0.80
2018-04-06T04:49:18.817Z,-0.80
2018-04-06T04:51:47.051Z,-0.90
2018-04-06T04:54:15.306Z,-0.90
2018-04-06T04:56:43.540Z,-0.90
2018-04-06T04:59:11.786Z,-0.90
2018-04-06T05:01:40.009Z,-1.00
2018-04-06T05:04:08.661Z,-1.00
2018-04-06T05:06:36.861Z,-1.00
2018-04-06T05:09:05.817Z,-0.90
2018-04-06T05:11:34.040Z,-0.90
2018-04-06T05:14:02.280Z,-0.90
2018-04-06T05:16:31.284Z,-0.90
2018-04-06T05:19:00.298Z,-0.80
2018-04-06T05:21:28.544Z,-0.80
2018-04-06T05:23:57.553Z,-0.70
2018-04-06T05:26:25.785Z,-0.70
2018-04-06T05:28:54.021Z,-0.60
2018-04-06T05:31:22.263Z,-0.60
2018-04-06T05:33:51.278Z,-0.50
2018-04-06T05:36:19.516Z,-0.50
2018-04-06T05:38:48.613Z,-0.40
2018-04-06T05:41:16.763Z,-0.40
2018-04-06T05:43:45.267Z,-0.40
2018-04-06T05:46:13.488Z,-0.30
2018-04-06T05:48:41.729Z,-0.30
2018-04-06T05:51:09.961Z,-0.20
2018-04-06T05:53:38.205Z,-0.20
2018-04-06T05:56:06.437Z,-0.10
2018-04-06T05:58:35.436Z,0.00
2018-04-06T06:01:03.664Z,0.00
2018-04-06T06:03:31.893Z,0.10
2018-04-06T06:06:00.125Z,0.10
2018-04-06T06:08:28.366Z,0.20
2018-04-06T06:10:56.583Z,0.30
2018-04-06T06:13:25.593Z,0.60
2018-04-06T06:15:54.585Z,0.60
2018-04-06T06:18:23.580Z,0.70
2018-04-06T06:20:51.808Z,0.70
2018-04-06T06:23:20.048Z,0.80
2018-04-06T06:25:48.273Z,1.00
2018-04-06T06:28:16.533Z,1.20
2018-04-06T06:30:44.760Z,1.30
2018-04-06T06:33:13.012Z,1.40
2018-04-06T06:35:42.012Z,1.80
2018-04-06T06:38:10.240Z,1.70
2018-04-06T06:40:38.486Z,1.90
2018-04-06T06:43:06.710Z,2.30
2018-04-06T06:45:34.941Z,2.70
2018-04-06T06:48:03.165Z,3.20
2018-04-06T06:50:32.168Z,3.80
2018-04-06T06:53:00.391Z,3.80
2018-04-06T06:55:28.632Z,4.20
2018-04-06T06:57:56.851Z,4.40
2018-04-06T07:00:25.093Z,4.60
2018-04-06T07:02:53.396Z,4.80
2018-04-06T07:05:21.633Z,5.10
2018-04-06T07:07:49.868Z,5.40
2018-04-06T07:10:18.916Z,5.50
2018-04-06T07:12:47.101Z,5.50
2018-04-06T07:15:15.344Z,5.70
2018-04-06T07:17:43.569Z,5.70
2018-04-06T07:20:11.809Z,5.90
2018-04-06T07:22:40.045Z,5.90
2018-04-06T07:25:08.287Z,6.10
2018-04-06T07:27:36.516Z,6.20
2018-04-06T07:30:04.748Z,6.60
2018-04-06T07:32:33.837Z,6.90
2018-04-06T07:35:02.061Z,6.90
2018-04-06T07:37:30.301Z,7.00
2018-04-06T07:39:59.295Z,7.20
2018-04-06T07:42:28.304Z,7.30
2018-04-06T07:44:56.535Z,7.30
2018-04-06T07:47:24.772Z,7.30
2018-04-06T07:49:53.210Z,7.10
2018-04-06T07:52:21.503Z,7.20
2018-04-06T07:54:49.720Z,7.20
2018-04-06T07:57:17.961Z,7.20
2018-04-06T07:59:46.177Z,7.20
2018-04-06T08:02:14.426Z,7.30
2018-04-06T08:04:42.652Z,7.40
2018-04-06T08:07:11.651Z,7.40
2018-04-06T08:09:39.897Z,7.30
2018-04-06T08:12:08.129Z,7.60
2018-04-06T08:14:36.370Z,7.80
2018-04-06T08:17:05.364Z,7.70
2018-04-06T08:19:33.648Z,7.70
2018-04-06T08:22:01.877Z,7.70
2018-04-06T08:24:30.110Z,7.80
2018-04-06T08:26:58.332Z,8.10
2018-04-06T08:29:26.580Z,8.30
2018-04-06T08:31:54.809Z,8.40
2018-04-06T08:34:23.050Z,8.40
2018-04-06T08:36:51.273Z,8.60
2018-04-06T08:39:19.508Z,9.10
2018-04-06T08:41:48.499Z,9.20
2018-04-06T08:44:17.509Z,9.30
2018-04-06T08:46:46.495Z,9.30
2018-04-06T08:49:15.506Z,9.20
2018-04-06T08:51:43.732Z,9.20
2018-04-06T08:54:11.971Z,9.40
2018-04-06T08:56:40.203Z,9.00
2018-04-06T08:59:09.200Z,9.30
2018-04-06T09:01:37.428Z,9.30
2018-04-06T09:04:05.664Z,9.20
2018-04-06T09:06:33.897Z,9.50
2018-04-06T09:09:02.141Z,9.90
2018-04-06T09:11:30.359Z,10.40
2018-04-06T09:13:59.371Z,10.80
2018-04-06T09:16:27.613Z,10.80
2018-04-06T09:18:55.852Z,10.90
2018-04-06T09:21:24.084Z,11.00
2018-04-06T09:23:52.332Z,10.80
2018-04-06T09:26:20.562Z,11.10
2018-04-06T09:28:48.783Z,11.50
2018-04-06T09:31:17.786Z,11.90
2018-04-06T09:33:47.108Z,12.40
2018-04-06T09:36:17.823Z,12.40
2018-04-06T09:38:47.381Z,12.40
2018-04-06T09:41:16.301Z,12.40
2018-04-06T09:43:44.974Z,12.70
2018-04-06T09:46:13.190Z,13.10
2018-04-06T09:48:41.419Z,13.20
2018-04-06T09:51:09.659Z,13.10
2018-04-06T09:53:37.884Z,13.20
2018-04-06T09:56:06.891Z,13.80
2018-04-06T09:58:35.141Z,13.80
2018-04-06T10:01:05.955Z,13.40
2018-04-06T10:03:34.205Z,13.70
2018-04-06T10:06:02.431Z,13.60
2018-04-06T10:08:32.240Z,14.30
2018-04-06T10:11:01.259Z,14.00
2018-04-06T10:13:29.483Z,14.00
2018-04-06T10:15:57.722Z,14.50
2018-04-06T10:18:25.948Z,14.50
2018-04-06T10:20:54.954Z,14.30
2018-04-06T10:23:23.952Z,13.80
2018-04-06T10:25:52.200Z,13.80
2018-04-06T10:28:20.457Z,14.10
2018-04-06T10:30:48.697Z,14.30
2018-04-06T10:33:16.975Z,14.50
2018-04-06T10:35:45.162Z,14.50
2018-04-06T10:38:13.389Z,14.80
2018-04-06T10:40:42.408Z,14.60
2018-04-06T10:43:10.632Z,14.70
2018-04-06T10:45:38.857Z,14.80
2018-04-06T10:48:07.099Z,15.20
2018-04-06T10:50:36.097Z,15.10
2018-04-06T10:53:05.092Z,15.30
2018-04-06T10:55:33.326Z,15.30
2018-04-06T10:58:01.564Z,15.50
2018-04-06T11:00:29.797Z,15.40
2018-04-06T11:02:58.795Z,14.80
2018-04-06T11:05:27.028Z,14.80
2018-04-06T11:07:55.279Z,14.90
2018-04-06T11:10:23.508Z,14.90
2018-04-06T11:12:57.408Z,14.90
2018-04-06T11:15:26.398Z,14.60
2018-04-06T11:17:55.400Z,14.10
2018-04-06T11:20:24.400Z,14.40
2018-04-06T11:22:53.433Z,14.20
2018-04-06T11:25:21.649Z,14.10
2018-04-06T11:27:50.657Z,14.50
2018-04-06T11:30:18.890Z,14.40
2018-04-06T11:32:47.133Z,14.50
2018-04-06T11:35:15.353Z,14.40
2018-04-06T11:37:43.588Z,14.70
2018-04-06T11:40:11.816Z,14.70
2018-04-06T11:42:40.828Z,15.00
2018-04-06T11:45:09.068Z,15.00
2018-04-06T11:47:37.429Z,14.90
2018-04-06T11:50:05.629Z,14.70
2018-04-06T11:52:34.627Z,15.10
2018-04-06T11:55:02.859Z,15.10
2018-04-06T11:57:31.092Z,15.60
2018-04-06T11:59:59.325Z,15.80
2018-04-06T12:02:27.557Z,15.30
2018-04-06T12:04:55.800Z,15.30
2018-04-06T12:07:24.035Z,15.50
2018-04-06T12:09:52.272Z,15.60
2018-04-06T12:12:20.500Z,15.70
2018-04-06T12:14:49.508Z,15.80
2018-04-06T12:17:17.734Z,15.70
2018-04-06T12:19:45.979Z,15.70
2018-04-06T12:22:14.213Z,15.50
2018-04-06T12:24:42.448Z,15.20
2018-04-06T12:27:10.682Z,15.20
2018-04-06T12:29:39.711Z,15.50
2018-04-06T12:32:07.921Z,15.50
2018-04-06T12:34:36.177Z,15.30
2018-04-06T12:37:04.404Z,14.90
2018-04-06T12:39:32.644Z,15.40
2018-04-06T12:42:01.642Z,15.50
2018-04-06T12:44:30.645Z,15.60
2018-04-06T12:46:59.641Z,15.50
2018-04-06T12:49:28.645Z,15.50
2018-04-06T12:51:56.876Z,15.50
2018-04-06T12:54:25.104Z,15.50
2018-04-06T12:56:53.344Z,15.40
2018-04-06T12:59:22.344Z,15.60
2018-04-06T13:01:50.568Z,15.60
2018-04-06T13:04:19.185Z,15.40
2018-04-06T13:06:47.403Z,15.10
2018-04-06T13:09:15.649Z,15.10
2018-04-06T13:11:44.635Z,15.40
2018-04-06T13:14:12.872Z,15.40
2018-04-06T13:16:41.109Z,15.60
2018-04-06T13:19:09.411Z,15.70
2018-04-06T13:21:37.707Z,15.30
2018-04-06T13:24:05.932Z,15.50
2018-04-06T13:26:34.211Z,15.60
2018-04-06T13:29:02.440Z,15.20
2018-04-06T13:31:31.451Z,15.60
2018-04-06T13:33:59.669Z,15.60
2018-04-06T13:36:27.917Z,15.50
2018-04-06T13:38:56.148Z,15.60
2018-04-06T13:41:24.385Z,15.70
2018-04-06T13:43:52.617Z,15.60
2018-04-06T13:46:20.869Z,15.70
2018-04-06T13:48:49.085Z,15.60
2018-04-06T13:51:17.316Z,15.50
2018-04-06T13:53:46.307Z,15.40
2018-04-06T13:56:14.548Z,15.30
2018-04-06T13:58:42.769Z,15.10
2018-04-06T14:01:11.808Z,15.30
2018-04-06T14:03:40.016Z,15.30
2018-04-06T14:06:08.254Z,15.30
2018-04-06T14:08:36.497Z,15.40
2018-04-06T14:11:04.735Z,15.20
2018-04-06T14:13:32.963Z,15.10
2018-04-06T14:16:01.206Z,15.10
2018-04-06T14:18:30.197Z,15.40
2018-04-06T14:20:59.197Z,15.50
2018-04-06T14:23:27.459Z,15.50
2018-04-06T14:25:56.443Z,15.20
2018-04-06T14:28:25.448Z,15.20
2018-04-06T14:30:53.672Z,15.20
2018-04-06T14:33:21.909Z,15.10
2018-04-06T14:35:50.133Z,15.10
2018-04-06T14:38:18.375Z,15.20
2018-04-06T14:40:46.590Z,15.20
2018-04-06T14:43:14.836Z,15.00
2018-04-06T14:45:43.064Z,14.80
2018-04-06T14:48:11.306Z,14.60
2018-04-06T14:50:39.537Z,14.60
2018-04-06T14:53:07.770Z,14.60
2018-04-06T14:55:36.755Z,14.80
2018-04-06T14:58:05.763Z,14.80
2018-04-06T15:00:34.756Z,14.80
2018-04-06T15:03:02.998Z,14.80
2018-04-06T15:05:31.221Z,14.80
2018-04-06T15:07:59.468Z,14.70
2018-04-06T15:10:28.469Z,14.60
2018-04-06T15:12:57.465Z,14.50
2018-04-06T15:15:25.689Z,14.50
2018-04-06T15:17:53.937Z,14.50
2018-04-06T15:20:22.472Z,14.50
2018-04-06T15:22:50.704Z,14.40
2018-04-06T15:25:18.928Z,14.40
2018-04-06T15:27:47.964Z,14.20
2018-04-06T15:30:16.196Z,14.20
2018-04-06T15:32:45.196Z,14.20
2018-04-06T15:35:13.424Z,14.20
2018-04-06T15:37:41.660Z,14.10
2018-04-06T15:40:09.912Z,14.10
2018-04-06T15:42:38.908Z,14.20
2018-04-06T15:45:07.160Z,14.10
2018-04-06T15:47:35.380Z,14.10
2018-04-06T15:50:03.632Z,14.10
2018-04-06T15:52:31.870Z,14.10
2018-04-06T15:55:00.285Z,14.10
2018-04-06T15:57:28.532Z,14.10
2018-04-06T15:59:56.800Z,14.10
2018-04-06T16:02:25.033Z,14.20
2018-04-06T16:04:53.271Z,14.10
2018-04-06T16:07:21.501Z,14.10
2018-04-06T16:09:50.010Z,14.00
2018-04-06T16:12:18.236Z,13.90
2018-04-06T16:14:46.485Z,13.90
2018-04-06T16:17:14.708Z,13.80
2018-04-06T16:19:42.957Z,13.80
2018-04-06T16:22:11.953Z,13.50
2018-04-06T16:24:40.201Z,13.50
2018-04-06T16:27:08.457Z,13.40
2018-04-06T16:29:37.459Z,13.30
2018-04-06T16:32:05.692Z,13.30
2018-04-06T16:34:33.940Z,13.30
2018-04-06T16:37:02.180Z,13.30
2018-04-06T16:39:30.441Z,13.30
2018-04-06T16:41:59.424Z,13.30
2018-04-06T16:44:28.418Z,13.30
2018-04-06T16:46:57.426Z,13.30
2018-04-06T16:49:26.421Z,13.20
2018-04-06T16:51:54.668Z,13.20
2018-04-06T16:54:23.715Z,13.00
2018-04-06T16:56:51.938Z,13.00
2018-04-06T16:59:20.928Z,12.80
2018-04-06T17:01:49.944Z,12.70
2018-04-06T17:04:18.156Z,12.70
2018-04-06T17:06:46.397Z,12.70
2018-04-06T17:09:14.621Z,12.60
2018-04-06T17:11:42.869Z,12.50
2018-04-06T17:14:11.100Z,12.40
2018-04-06T17:16:39.343Z,12.30
2018-04-06T17:19:07.753Z,12.30
2018-04-06T17:21:36.454Z,12.20
2018-04-06T17:24:05.900Z,12.00
2018-04-06T17:26:34.687Z,11.90
2018-04-06T17:29:04.201Z,11.70
2018-04-06T17:31:32.802Z,11.70
2018-04-06T17:34:01.572Z,11.60
2018-04-06T17:36:30.150Z,11.50
2018-04-06T17:38:58.663Z,11.40
2018-04-06T17:41:27.735Z,11.20
2018-04-06T17:43:56.315Z,11.20
2018-04-06T17:46:24.651Z,11.20
2018-04-06T17:48:53.311Z,11.10
2018-04-06T17:51:22.271Z,11.10
2018-04-06T17:53:51.011Z,11.00
2018-04-06T17:56:19.786Z,10.90
2018-04-06T17:58:48.513Z,10.80
2018-04-06T18:01:16.950Z,10.70
2018-04-06T18:03:46.147Z,10.60
2018-04-06T18:06:14.796Z,10.60
2018-04-06T18:08:43.536Z,10.50
2018-04-06T18:11:12.580Z,10.40
2018-04-06T18:13:40.845Z,10.40
2018-04-06T18:16:09.051Z,10.40
2018-04-06T18:18:37.304Z,10.30
2018-04-06T18:21:05.544Z,10.20
2018-04-06T18:23:33.790Z,10.20
2018-04-06T18:26:02.016Z,10.20
2018-04-06T18:28:31.073Z,10.10
2018-04-06T18:30:59.647Z,10.00
2018-04-06T18:33:27.885Z,10.00
2018-04-06T18:35:56.132Z,10.00
2018-04-06T18:38:24.394Z,9.90
2018-04-06T18:40:52.924Z,9.90
2018-04-06T18:43:21.100Z,9.70
2018-04-06T18:45:49.320Z,9.70
2018-04-06T18:48:17.552Z,9.70
2018-04-06T18:50:45.793Z,9.60
2018-04-06T18:53:14.792Z,9.40
2018-04-06T18:55:43.016Z,9.40
2018-04-06T18:58:11.253Z,9.40
2018-04-06T19:00:39.606Z,9.30
2018-04-06T19:03:07.947Z,9.20
2018-04-06T19:05:36.143Z,9.20
2018-04-06T19:08:05.150Z,9.00
2018-04-06T19:10:33.372Z,9.00
2018-04-06T19:13:01.602Z,9.00
2018-04-06T19:15:29.897Z,8.90
2018-04-06T19:17:58.118Z,8.90
2018-04-06T19:20:26.349Z,8.80
2018-04-06T19:22:54.565Z,8.80
2018-04-06T19:25:22.810Z,8.80
2018-04-06T19:27:51.030Z,8.70
2018-04-06T19:30:20.024Z,8.60
2018-04-06T19:32:48.248Z,8.60
2018-04-06T19:35:17.243Z,8.50
2018-04-06T19:37:46.988Z,8.40
2018-04-06T19:40:16.004Z,8.30
2018-04-06T19:42:44.235Z,8.30
2018-04-06T19:45:12.464Z,8.20
2018-04-06T19:47:40.736Z,8.10
2018-04-06T19:50:08.934Z,8.10
2018-04-06T19:52:37.929Z,8.10
2018-04-06T19:55:06.937Z,8.00
2018-04-06T19:57:35.152Z,8.00
2018-04-06T20:00:03.384Z,8.00
2018-04-06T20:02:31.625Z,7.90
2018-04-06T20:04:59.840Z,7.90
2018-04-06T20:07:28.076Z,7.80
2018-04-06T20:09:56.292Z,7.80
2018-04-06T20:12:25.314Z,7.70
2018-04-06T20:14:53.541Z,7.70
2018-04-06T20:17:21.775Z,7.70
2018-04-06T20:19:49.991Z,7.70
2018-04-06T20:22:19.048Z,7.70
2018-04-06T20:24:47.266Z,7.70
2018-04-06T20:27:15.500Z,7.70
2018-04-06T20:29:43.723Z,7.80
2018-04-06T20:32:12.724Z,7.80
2018-04-06T20:34:40.954Z,7.80
2018-04-06T20:37:09.190Z,7.80
2018-04-06T20:39:37.421Z,7.80
2018-04-06T20:42:05.664Z,7.80
2018-04-06T20:44:33.875Z,7.80
2018-04-06T20:47:02.865Z,7.70
2018-04-06T20:49:31.125Z,7.70
2018-04-06T20:51:59.338Z,7.70
2018-04-06T20:54:27.579Z,7.60
2018-04-06T20:56:55.801Z,7.60
2018-04-06T20:59:24.046Z,7.70
2018-04-06T21:01:52.240Z,7.60
2018-04-06T21:04:20.471Z,7.60
2018-04-06T21:06:48.687Z,7.50
2018-04-06T21:09:16.928Z,7.50
2018-04-06T21:11:45.149Z,7.40
2018-04-06T21:14:13.384Z,7.40
2018-04-06T21:16:42.391Z,7.40
2018-04-06T21:19:10.632Z,7.40
2018-04-06T21:21:38.857Z,7.30
2018-04-06T21:24:07.084Z,7.30
2018-04-06T21:26:36.068Z,7.10
2018-04-06T21:29:04.310Z,7.10
2018-04-06T21:31:32.533Z,7.10
2018-04-06T21:34:01.533Z,7.00
2018-04-06T21:36:29.763Z,6.90
2018-04-06T21:38:57.993Z,6.90
2018-04-06T21:41:26.212Z,6.90
2018-04-06T21:43:54.468Z,6.90
2018-04-06T21:46:22.676Z,6.90
2018-04-06T21:48:50.896Z,6.80
2018-04-06T21:51:19.140Z,6.80
2018-04-06T21:53:48.125Z,6.80
2018-04-06T21:56:17.128Z,6.80
2018-04-06T21:58:46.118Z,6.80
2018-04-06T22:01:15.111Z,6.80
2018-04-06T22:03:44.100Z,6.70
2018-04-06T22:06:13.100Z,6.70
2018-04-06T22:08:41.324Z,6.70
2018-04-06T22:11:09.556Z,6.90
2018-04-06T22:13:37.786Z,7.00
2018-04-06T22:16:06.020Z,7.10
2018-04-06T22:18:34.229Z,7.20
2018-04-06T22:21:02.460Z,7.30
2018-04-06T22:23:30.684Z,7.30
2018-04-06T22:25:58.912Z,7.40
2018-04-06T22:28:27.144Z,7.40
2018-04-06T22:30:56.632Z,7.40
2018-04-06T22:33:24.824Z,7.40
2018-04-06T22:35:53.825Z,7.60
2018-04-06T22:38:22.804Z,7.60
2018-04-06T22:40:51.804Z,7.60
2018-04-06T22:43:20.803Z,7.50
2018-04-06T22:45:49.055Z,7.60
2018-04-06T22:48:17.268Z,7.60
2018-04-06T22:50:45.502Z,7.60
2018-04-06T22:53:13.716Z,7.70
2018-04-06T22:55:41.961Z,7.70
2018-04-06T22:58:10.957Z,7.80
2018-04-06T23:00:39.944Z,7.80
2018-04-06T23:03:09.092Z,7.70
2018-04-06T23:05:37.327Z,7.70
2018-04-06T23:08:05.568Z,7.70
2018-04-06T23:10:33.789Z,7.80
2018-04-06T23:13:02.017Z,7.80
2018-04-06T23:15:30.232Z,7.80
2018-04-06T23:17:58.469Z,7.80
2018-04-06T23:20:27.456Z,7.80
2018-04-06T23:22:55.688Z,7.70
2018-04-06T23:25:23.899Z,7.70
2018-04-06T23:27:52.140Z,7.70
2018-04-06T23:30:20.364Z,7.60
2018-04-06T23:32:49.361Z,7.60
2018-04-06T23:35:17.580Z,7.60
2018-04-06T23:37:45.812Z,7.50
2018-04-06T23:40:14.032Z,7.40
2018-04-06T23:42:42.269Z,7.40
2018-04-06T23:45:10.489Z,7.30
2018-04-06T23:47:38.727Z,7.30
2018-04-06T23:50:06.944Z,7.30
2018-04-06T23:52:35.176Z,7.10
2018-04-06T23:55:03.399Z,7.00
2018-04-06T23:57:31.636Z,7.00
2018-04-06T23:59:59.864Z,7.00
